Observations for LEEDS AND BRADFORD, United Kingdom (EGNM)

EGNM 261920Z 03008KT 330V080 CAVOK 13/10 Q1023  
EGNM 261850Z 03008KT 340V100 CAVOK 15/10 Q1023  
EGNM 261820Z 02012KT 350V050 CAVOK 16/11 Q1023  
EGNM 261750Z 03013KT CAVOK 18/11 Q1023  
EGNM 261720Z 05011KT 020V090 CAVOK 20/08 Q1023  
EGNM 261650Z 06012KT 030V100 CAVOK 20/09 Q1024  
EGNM 261620Z 06010KT 360V110 CAVOK 20/09 Q1024  
EGNM 261550Z 06011G21KT 020V110 CAVOK 20/08 Q1024   
EGNM 261520Z 06013KT 010V100 CAVOK 19/08 Q1024  
EGNM 261450Z 06011KT 360V100 CAVOK 19/08 Q1024  
EGNM 261420Z 05010KT 360V100 CAVOK 19/09 Q1025  
EGNM 261350Z 05011KT 360V110 CAVOK 19/10 Q1025  
EGNM 261320Z 06012KT 360V110 CAVOK 18/10 Q1025  
EGNM 261250Z 05012KT 360V110 CAVOK 18/10 Q1025  
EGNM 261220Z 05008KT 360V110 CAVOK 16/10 Q1025  
EGNM 261150Z 05009KT 360V110 9999 SCT025 BKN047 16/10 Q1025 
EGNM 261120Z 05008KT 010V100 9999 -SHRA SCT025 BKN047 16/10 Q1025   
EGNM 261050Z 05010KT 010V100 9999 BKN047 17/10 Q1025
EGNM 261020Z 04010KT 360V100 9999 SCT045 16/10 Q1024
EGNM 260950Z 04011G22KT 330V100 9999 SCT047 16/12 Q1024 
EGNM 260920Z 04012KT 010V080 CAVOK 15/11 Q1024  
EGNM 260850Z 03011KT 360V080 CAVOK 14/10 Q1024  
EGNM 260820Z 03012KT 350V070 CAVOK 14/10 Q1024  
EGNM 260750Z 02011KT 360V060 9000 NSC 13/10 Q1024   
EGNM 260720Z 02010KT 340V050 9999 FEW009 12/10 Q1024
EGNM 260650Z 02011KT 350V050 9000 FEW008 12/10 Q1024
EGNM 260620Z 02012KT 350V060 7000 FEW006 11/10 Q1023
EGNM 260550Z 02012KT 350V050 7000 FEW006 11/10 Q1023
EGNM 260520Z 02011KT 350V050 3500 BR FEW003 BKN007 10/10 Q1023  
EGNM 260450Z 02012KT 350V070 7000 BKN007 10/10 Q1023
EGNM 260420Z 01012KT 350V050 3000 BR BKN007 10/10 Q1023 
EGNM 260350Z 02011KT 350V050 2500 FG BKN005 11/10 Q1023 
EGNM 260320Z 01011KT 350V050 1400 FG BKN003 10/10 Q1023 
EGNM 260250Z 02010KT 350V060 1400 FG BKN003 11/10 Q1023 
EGNM 260220Z 03008KT 350V070 1400 R32/P1500 FG BKN003 11/10 Q1023   
EGNM 260150Z 02008KT 360V070 0700 R32/P1500 FG VV/// 11/11 Q1023
EGNM 260120Z 02011KT 330V060 0700 R32/1000 FG VV/// 10/10 Q1023 
EGNM 260050Z 01011KT 330V050 0600 R32/1300 FG VV/// 10/10 Q1023 
EGNM 260020Z 01010KT 330V060 0600 R32/1300 FG VV/// 11/10 Q1023 
EGNM 252350Z 02009KT 330V050 0600 R32/1100 FG VV/// 11/10 Q1023 
EGNM 252320Z 02012KT 340V050 0600 R32/0450 FG VV/// 11/10 Q1023 
EGNM 252250Z 02009KT 350V070 0600 R32/0700 FG SCT001 OVC002 11/10 Q1023 
EGNM 252220Z 02010KT 330V050 0600 R32/0900 FG SCT001 OVC002 11/10 Q1023 
EGNM 252150Z 02009KT 350V060 1100 R32/P1500 BR SCT001 OVC002 11/11 Q1023
EGNM 252120Z 02009KT 350V060 1300 R32/1400 BR SCT001 OVC002 11/10 Q1023 
EGNM 252050Z 02008KT 330V060 3000 BR SCT002 BKN003 11/11 Q1022  
EGNM 252020Z 01011KT 350V050 3500 BR SCT002 BKN003 11/11 Q1022  
EGNM 251950Z 02011KT 350V050 3500 BR SCT002 BKN003 11/11 Q1022  
EGNM 251920Z 02011KT 350V060 3500 BR SCT001 BKN002 11/11 Q1022  
EGNM 251850Z 02011KT 340V060 2500 -DZ BR SCT001 BKN002 11/11 Q1021